Janice E. Strait — WDG4317 — position and weather

sailwx.info

Track history (hours):
 
Tides and Currents Weather Stations Pressure Air Temp Water Temp Dewpoint Dewpoint Depression Visibility Wind Speed Wind Dir Waves Ship Positions

Janice E. Strait

Owner: Western Rivers Boat Management, Inc., paducah, KY. More information available from US FCC via Universal Licensing System and Coast Guard Vessel Documentation Center.

Last reported at 2018-Feb-17 06:56 UTC. Time now 2018-Feb-21 17:25 UTC.
Position N 32°40' W 091°07'.

Length 66 m; draft 3 m.

Type: Towing. MMSI: 367535280.

Date/timePositionNaut miles runAvg speedWind from/ knotsBaromVisibWave heightAir tempDewpointWater temp
2018-Feb-17 06:56N 32°40' W 091°07'3 3.0
2018-Feb-17 05:50N 32°38' W 091°09'1 2.2
2018-Feb-17 05:30N 32°37' W 091°09'0 0.1
2018-Feb-17 05:00N 32°37' W 091°09'0 0.0
2018-Feb-17 04:29N 32°37' W 091°09'0 0.7
2018-Feb-17 04:00N 32°37' W 091°09'2 3.1
2018-Feb-17 03:30N 32°36' W 091°08'2 3.1
2018-Feb-17 03:00N 32°35' W 091°07'2 3.5
2018-Feb-17 02:27N 32°33' W 091°06'2 3.7
2018-Feb-17 02:00N 32°31' W 091°06'2 4.5
2018-Feb-17 01:30N 32°29' W 091°07'2 3.9
2018-Feb-17 01:00N 32°27' W 091°05'2 3.9
2018-Feb-17 00:30N 32°26' W 091°04'2 3.8
2018-Feb-17 00:00N 32°26' W 091°01'2 3.5
2018-Feb-16 23:30N 32°25' W 090°60'2 3.3
2018-Feb-16 23:00N 32°23' W 090°60'2 3.5
2018-Feb-16 22:30N 32°21' W 091°00'2 3.4
2018-Feb-16 22:00N 32°21' W 090°58'0 0.2
2018-Feb-16 21:30N 32°21' W 090°58'0 0.1
2018-Feb-16 21:00N 32°21' W 090°58'0 0.2
2018-Feb-16 20:30N 32°21' W 090°58'1 2.9
2018-Feb-16 20:00N 32°21' W 090°56'2 3.4
2018-Feb-16 19:30N 32°20' W 090°54'1 1.5
2018-Feb-16 19:00N 32°19' W 090°54'1 2.6
2018-Feb-16 18:30N 32°18' W 090°55'0 0.7
2018-Feb-16 18:00N 32°18' W 090°55'0 0.0
2018-Feb-16 17:29N 32°18' W 090°55'0 0.1
2018-Feb-16 17:00N 32°18' W 090°55'1 2.0
2018-Feb-16 16:30N 32°17' W 090°56'2 3.4
2018-Feb-16 16:00N 32°16' W 090°58'2 3.5
2018-Feb-16 15:30N 32°15' W 090°59'2 3.2
2018-Feb-16 15:00N 32°13' W 090°59'2 3.5
2018-Feb-16 14:30N 32°11' W 090°59'2 3.2
2018-Feb-16 14:00N 32°10' W 090°60'2 3.9
2018-Feb-16 13:28N 32°08' W 091°00'2 3.1
2018-Feb-16 12:59N 32°07' W 091°02'3 3.7
2018-Feb-16 12:05N 32°08' W 091°06'0 3.5
2018-Feb-16 11:59N 32°08' W 091°06'1 3.0
2018-Feb-16 11:30N 32°06' W 091°06'3 4.3
2018-Feb-16 10:48N 32°04' W 091°04'1 3.2
2018-Feb-16 10:30N 32°03' W 091°03'  
2018-Feb-07 09:25N 32°29' W 091°07'0 0.0
2018-Feb-07 08:54N 32°29' W 091°07'0 0.0
2018-Feb-07 08:30N 32°29' W 091°07'0 0.0
2018-Feb-07 08:00N 32°29' W 091°07'0 0.0
2018-Feb-07 07:29N 32°29' W 091°07'0 0.0
2018-Feb-07 07:00N 32°29' W 091°07'  
Track history (hours):
 
Tides and Currents Weather Stations Pressure Air Temp Water Temp Dewpoint Dewpoint Depression Visibility Wind Speed Wind Dir Waves Ship Positions

Janice E. Strait

Owner: Western Rivers Boat Management, Inc., paducah, KY. More information available from US FCC via Universal Licensing System and Coast Guard Vessel Documentation Center.

Last reported at 2018-Feb-17 06:56 UTC. Time now 2018-Feb-21 17:25 UTC.
Position N 32°40' W 091°07'.

Length 66 m; draft 3 m.

Type: Towing. MMSI: 367535280.

Date/timePositionNaut miles runAvg speedWind from/ knotsBaromVisibWave heightAir tempDewpointWater temp
2018-Feb-17 06:56N 32°40' W 091°07'3 3.0
2018-Feb-17 05:50N 32°38' W 091°09'1 2.2
2018-Feb-17 05:30N 32°37' W 091°09'0 0.1
2018-Feb-17 05:00N 32°37' W 091°09'0 0.0
2018-Feb-17 04:29N 32°37' W 091°09'0 0.7
2018-Feb-17 04:00N 32°37' W 091°09'2 3.1
2018-Feb-17 03:30N 32°36' W 091°08'2 3.1
2018-Feb-17 03:00N 32°35' W 091°07'2 3.5
2018-Feb-17 02:27N 32°33' W 091°06'2 3.7
2018-Feb-17 02:00N 32°31' W 091°06'2 4.5
2018-Feb-17 01:30N 32°29' W 091°07'2 3.9
2018-Feb-17 01:00N 32°27' W 091°05'2 3.9
2018-Feb-17 00:30N 32°26' W 091°04'2 3.8
2018-Feb-17 00:00N 32°26' W 091°01'2 3.5
2018-Feb-16 23:30N 32°25' W 090°60'2 3.3
2018-Feb-16 23:00N 32°23' W 090°60'2 3.5
2018-Feb-16 22:30N 32°21' W 091°00'2 3.4
2018-Feb-16 22:00N 32°21' W 090°58'0 0.2
2018-Feb-16 21:30N 32°21' W 090°58'0 0.1
2018-Feb-16 21:00N 32°21' W 090°58'0 0.2
2018-Feb-16 20:30N 32°21' W 090°58'1 2.9
2018-Feb-16 20:00N 32°21' W 090°56'2 3.4
2018-Feb-16 19:30N 32°20' W 090°54'1 1.5
2018-Feb-16 19:00N 32°19' W 090°54'1 2.6
2018-Feb-16 18:30N 32°18' W 090°55'0 0.7
2018-Feb-16 18:00N 32°18' W 090°55'0 0.0
2018-Feb-16 17:29N 32°18' W 090°55'0 0.1
2018-Feb-16 17:00N 32°18' W 090°55'1 2.0
2018-Feb-16 16:30N 32°17' W 090°56'2 3.4
2018-Feb-16 16:00N 32°16' W 090°58'2 3.5
2018-Feb-16 15:30N 32°15' W 090°59'2 3.2
2018-Feb-16 15:00N 32°13' W 090°59'2 3.5
2018-Feb-16 14:30N 32°11' W 090°59'2 3.2
2018-Feb-16 14:00N 32°10' W 090°60'2 3.9
2018-Feb-16 13:28N 32°08' W 091°00'2 3.1
2018-Feb-16 12:59N 32°07' W 091°02'3 3.7
2018-Feb-16 12:05N 32°08' W 091°06'0 3.5
2018-Feb-16 11:59N 32°08' W 091°06'1 3.0
2018-Feb-16 11:30N 32°06' W 091°06'3 4.3
2018-Feb-16 10:48N 32°04' W 091°04'1 3.2
2018-Feb-16 10:30N 32°03' W 091°03'  
2018-Feb-07 09:25N 32°29' W 091°07'0 0.0
2018-Feb-07 08:54N 32°29' W 091°07'0 0.0
2018-Feb-07 08:30N 32°29' W 091°07'0 0.0
2018-Feb-07 08:00N 32°29' W 091°07'0 0.0
2018-Feb-07 07:29N 32°29' W 091°07'0 0.0
2018-Feb-07 07:00N 32°29' W 091°07'  

Dump ship's entire track history